»·PEaware :: N6641J KSMX-KSBA

N6641J :: KSMX-KSBA

FLIGHT INFORMATION

Flight Status: Arrived
Operator: Privately registered:
United States
More flights under this callsign
Pilot: National Flight Simulator (12278)
Aircraft: PIPER PA-28 CHEROKEE ARCHER
(P28A)
More flights by this aircraft type
Origin: KSMX Santa Maria Pub/Capt Hancock
United States
Destination: KSBA Santa Barbara Mun
United States
More flights between these airports :: More routes between these airports
Route: +ORCUT V27 GVO
File this flight plan on PilotEdge
Remarks: ILS 7
Altitude:
(Current/Filed)
7,000ft
Speed:
(Current/Filed)
110kts
Departed: 05-Jun-17 11:24 AM
Arrived: 05-Jun-17 11:58 AM
Distance/Time
Traveled:
41nm/0:33
Distance/Time
To Go:
Arrived

Flight Plot

Page will automatically refresh every two minutes.


Map Options




Map Legend


Flown Route
Filed Route
Departure Airport
Arrival Airport
Navaid (VOR, NDB)
Fix

Horizontal Profiles

Position Reports

Time Latitude Longitude Heading Altitude Ground
Speed
05-Jun-17 10:57 34.894368 -120.443017 315 262ft 0kts
05-Jun-17 10:58 34.894368 -120.443017 315 262ft 0kts
05-Jun-17 10:59 34.894368 -120.443017 315 262ft 0kts
05-Jun-17 11:00 34.894368 -120.443017 315 262ft 0kts
05-Jun-17 11:01 34.894368 -120.443017 315 262ft 0kts
05-Jun-17 11:02 34.894368 -120.443017 315 262ft 0kts
05-Jun-17 11:03 34.894368 -120.443017 315 262ft 0kts
05-Jun-17 11:04 34.894368 -120.443017 315 262ft 0kts
05-Jun-17 11:05 34.894368 -120.443017 315 262ft 0kts
05-Jun-17 11:06 34.894368 -120.443017 315 262ft 0kts
05-Jun-17 11:07 34.894368 -120.443017 315 262ft 0kts
05-Jun-17 11:08 34.894368 -120.443017 315 262ft 0kts
05-Jun-17 11:09 34.894368 -120.443017 315 262ft 0kts
05-Jun-17 11:10 34.894368 -120.443017 315 262ft 0kts
05-Jun-17 11:11 34.894368 -120.443017 315 262ft 0kts
05-Jun-17 11:12 34.894368 -120.443017 315 262ft 0kts
05-Jun-17 11:13 34.894368 -120.443017 315 262ft 0kts
05-Jun-17 11:14 34.894388 -120.443038 317 262ft 0kts
05-Jun-17 11:15 34.894388 -120.443038 317 262ft 0kts
05-Jun-17 11:16 34.894388 -120.443038 317 262ft 0kts
05-Jun-17 11:17 34.894388 -120.443038 317 262ft 0kts
05-Jun-17 11:18 34.894388 -120.443038 317 262ft 0kts
05-Jun-17 11:19 34.894388 -120.443038 317 262ft 0kts
05-Jun-17 11:20 34.894059 -120.444700 246 258ft 1kts
05-Jun-17 11:21 34.893432 -120.444993 202 258ft 0kts
05-Jun-17 11:22 34.893432 -120.444993 202 258ft 0kts
05-Jun-17 11:23 34.893432 -120.444993 202 258ft 0kts
05-Jun-17 11:24 34.893432 -120.444993 202 258ft 0kts
05-Jun-17 11:25 34.893615 -120.446900 316 256ft 40kts
05-Jun-17 11:26 34.906268 -120.460711 335 685ft 81kts
05-Jun-17 11:27 34.908955 -120.441647 116 1450ft 82kts
05-Jun-17 11:28 34.899359 -120.418623 106 2267ft 70kts
05-Jun-17 11:29 34.889057 -120.391381 116 3031ft 76kts
05-Jun-17 11:30 34.878350 -120.374589 150 3585ft 76kts
05-Jun-17 11:31 34.859821 -120.361229 130 4194ft 80kts
05-Jun-17 11:32 34.842917 -120.343675 172 4772ft 83kts
05-Jun-17 11:33 34.821262 -120.338037 151 5367ft 83kts
05-Jun-17 11:34 34.800592 -120.325305 166 5917ft 84kts
05-Jun-17 11:35 34.778154 -120.317938 157 6447ft 87kts
05-Jun-17 11:36 34.758375 -120.301383 149 6938ft 92kts
05-Jun-17 11:37 34.735590 -120.284899 141 6995ft 102kts
05-Jun-17 11:38 34.710712 -120.265113 158 6835ft 115kts
05-Jun-17 11:39 34.684609 -120.250195 145 6958ft 102kts
05-Jun-17 11:40 34.663441 -120.227609 139 6960ft 106kts
05-Jun-17 11:41 34.640318 -120.206020 152 6947ft 108kts
05-Jun-17 11:42 34.615116 -120.187483 160 6881ft 112kts
05-Jun-17 11:43 34.595202 -120.163905 136 6937ft 103kts
05-Jun-17 11:44 34.572129 -120.144489 140 6899ft 105kts
05-Jun-17 11:45 34.549193 -120.120793 126 6292ft 107kts
05-Jun-17 11:46 34.528205 -120.094641 154 5725ft 96kts
05-Jun-17 11:47 34.501034 -120.089431 186 4976ft 92kts
05-Jun-17 11:48 34.478136 -120.088056 162 3723ft 79kts
05-Jun-17 11:49 34.461334 -120.082420 150 3198ft 52kts
05-Jun-17 11:50 34.446751 -120.071609 169 3523ft 79kts
05-Jun-17 11:51 34.423190 -120.073358 144 3238ft 77kts
05-Jun-17 11:52 34.427216 -120.049515 62 3061ft 76kts
05-Jun-17 11:53 34.427274 -120.025005 106 2622ft 88kts
05-Jun-17 11:54 34.427407 -119.999454 98 2326ft 82kts
05-Jun-17 11:55 34.425782 -119.975513 82 2051ft 79kts
05-Jun-17 11:56 34.426488 -119.952817 103 1786ft 76kts
05-Jun-17 11:57 34.426894 -119.925648 90 1245ft 82kts
05-Jun-17 11:58 34.426786 -119.897929 93 772ft 85kts
05-Jun-17 11:59 34.427279 -119.870372 92 326ft 76kts
05-Jun-17 12:00 34.427603 -119.848671 89 10ft 18kts
05-Jun-17 12:01 34.428536 -119.845547 67 10ft 9kts
05-Jun-17 12:02 34.429186 -119.845264 249 10ft 0kts

Navigation Log

Ident Type
1. KSMX Airport
2. ORCUT Fix
3. AFOXY Fix
4. GVO Navaid
5. KSBA Airport